sensor_id;sensor_type;location;lat;lon;timestamp;pressure;altitude;pressure_sealevel;temperature;humidity
59375;BME280;45172;55.006;73.460;2023-08-01T00:01:33;99482.56;;;15.96;100.00
59375;BME280;45172;55.006;73.460;2023-08-01T00:03:59;99484.22;;;16.02;100.00
59375;BME280;45172;55.006;73.460;2023-08-01T00:06:25;99492.03;;;16.11;100.00
59375;BME280;45172;55.006;73.460;2023-08-01T00:08:51;99521.06;;;16.30;100.00
59375;BME280;45172;55.006;73.460;2023-08-01T00:11:18;99431.03;;;15.91;100.00
59375;BME280;45172;55.006;73.460;2023-08-01T00:13:44;99490.84;;;16.26;100.00
59375;BME280;45172;55.006;73.460;2023-08-01T00:16:13;99429.03;;;16.01;100.00
59375;BME280;45172;55.006;73.460;2023-08-01T00:18:40;99505.59;;;16.45;100.00
59375;BME280;45172;55.006;73.460;2023-08-01T00:21:06;99508.91;;;16.54;100.00
59375;BME280;45172;55.006;73.460;2023-08-01T00:23:36;99500.84;;;16.57;100.00
59375;BME280;45172;55.006;73.460;2023-08-01T00:26:02;99593.13;;;17.17;100.00
59375;BME280;45172;55.006;73.460;2023-08-01T00:28:31;99533.91;;;16.93;100.00
59375;BME280;45172;55.006;73.460;2023-08-01T00:31:04;99591.88;;;17.32;100.00
59375;BME280;45172;55.006;73.460;2023-08-01T00:33:37;99591.66;;;17.41;100.00
59375;BME280;45172;55.006;73.460;2023-08-01T00:40:34;99579.28;;;17.37;100.00
59375;BME280;45172;55.006;73.460;2023-08-01T00:48:13;99468.72;;;17.33;100.00
59375;BME280;45172;55.006;73.460;2023-08-01T00:50:40;99474.34;;;17.57;100.00
59375;BME280;45172;55.006;73.460;2023-08-01T00:53:07;99414.22;;;17.36;100.00
59375;BME280;45172;55.006;73.460;2023-08-01T00:55:34;99485.34;;;17.78;100.00
59375;BME280;45172;55.006;73.460;2023-08-01T00:58:00;99452.34;;;17.77;100.00
59375;BME280;45172;55.006;73.460;2023-08-01T06:54:30;99498.13;;;29.24;57.42
59375;BME280;45172;55.006;73.460;2023-08-01T07:01:03;99371.72;;;28.65;57.82
59375;BME280;45172;55.006;73.460;2023-08-01T12:05:24;99388.66;;;31.32;46.45
59375;BME280;45172;55.006;73.460;2023-08-01T12:07:51;99367.38;;;31.14;46.98
59375;BME280;45172;55.006;73.460;2023-08-01T12:10:20;99384.09;;;31.32;45.97
59375;BME280;45172;55.006;73.460;2023-08-01T12:12:46;99374.56;;;31.15;44.46
59375;BME280;45172;55.006;73.460;2023-08-01T12:15:14;99380.69;;;31.07;46.45
59375;BME280;45172;55.006;73.460;2023-08-01T12:17:41;99367.63;;;30.89;44.66
59375;BME280;45172;55.006;73.460;2023-08-01T12:20:08;99382.88;;;30.92;46.03
59375;BME280;45172;55.006;73.460;2023-08-01T12:22:35;99375.41;;;30.73;46.49
59375;BME280;45172;55.006;73.460;2023-08-01T12:25:02;99360.75;;;30.62;45.70
59375;BME280;45172;55.006;73.460;2023-08-01T12:27:28;99374.16;;;30.66;45.23
59375;BME280;45172;55.006;73.460;2023-08-01T12:29:55;99362.72;;;30.72;45.64
59375;BME280;45172;55.006;73.460;2023-08-01T12:32:21;99372.69;;;30.94;46.54
59375;BME280;45172;55.006;73.460;2023-08-01T12:34:48;99368.53;;;30.79;45.18
59375;BME280;45172;55.006;73.460;2023-08-01T12:37:14;99383.31;;;30.76;47.03
59375;BME280;45172;55.006;73.460;2023-08-01T12:39:40;99367.69;;;30.78;47.72
59375;BME280;45172;55.006;73.460;2023-08-01T12:42:06;99369.88;;;30.84;46.65
59375;BME280;45172;55.006;73.460;2023-08-01T12:44:32;99364.00;;;30.56;47.38
59375;BME280;45172;55.006;73.460;2023-08-01T12:47:01;99370.31;;;30.68;47.60
59375;BME280;45172;55.006;73.460;2023-08-01T12:49:27;99375.94;;;30.88;47.13
59375;BME280;45172;55.006;73.460;2023-08-01T12:51:56;99388.75;;;30.87;47.41
59375;BME280;45172;55.006;73.460;2023-08-01T12:54:24;99384.00;;;30.89;47.85
59375;BME280;45172;55.006;73.460;2023-08-01T12:56:50;99362.41;;;30.42;49.36
59375;BME280;45172;55.006;73.460;2023-08-01T12:59:17;99361.97;;;30.03;50.04
59375;BME280;45172;55.006;73.460;2023-08-01T13:01:43;99385.94;;;29.88;50.88
59375;BME280;45172;55.006;73.460;2023-08-01T13:04:10;99374.41;;;29.84;50.66
59375;BME280;45172;55.006;73.460;2023-08-01T13:06:36;99363.84;;;30.02;50.31
59375;BME280;45172;55.006;73.460;2023-08-01T13:09:02;99391.75;;;30.29;49.84
59375;BME280;45172;55.006;73.460;2023-08-01T13:11:30;99399.22;;;29.92;51.08
59375;BME280;45172;55.006;73.460;2023-08-01T13:13:56;99368.50;;;29.43;51.79
59375;BME280;45172;55.006;73.460;2023-08-01T13:16:23;99399.88;;;29.37;53.00
59375;BME280;45172;55.006;73.460;2023-08-01T13:18:49;99400.66;;;29.15;53.85
59375;BME280;45172;55.006;73.460;2023-08-01T13:21:16;99367.28;;;28.76;56.11
59375;BME280;45172;55.006;73.460;2023-08-01T13:23:43;99388.47;;;28.72;59.37
59375;BME280;45172;55.006;73.460;2023-08-01T13:26:10;99390.84;;;28.52;62.93
